Time;durP1;ratioP1;P1;durP2;ratioP2;P2;SDS_P1;SDS_P2;PMS_P1;PMS_P2;Temp;Humidity;BMP_temperature;BMP_pressure;BME280_temperature;BME280_humidity;BME280_pressure;Samples;Min_cycle;Max_cycle;Signal;HPM_P1;HPM_P2
2022/06/23 00:01:33;;;;;;;14.05;6.45;;;;;;;18.09;100.00;101252.13;5033958;28;20021;-73
2022/06/23 00:03:59;;;;;;;9.20;5.93;;;;;;;18.17;100.00;101252.94;5031650;28;20109;-72
2022/06/23 00:06:38;;;;;;;9.82;5.50;;;;;;;18.27;100.00;101250.19;5034718;28;20145;-72
2022/06/23 00:09:33;;;;;;;11.40;5.97;;;;;;;18.24;100.00;101252.91;5031609;28;20083;-73
2022/06/23 00:12:00;;;;;;;18.83;6.32;;;;;;;18.02;100.00;101255.72;5033436;28;20080;-74
2022/06/23 00:14:27;;;;;;;15.50;6.78;;;;;;;18.09;100.00;101249.44;5032518;28;20075;-73
2022/06/23 00:16:53;;;;;;;10.50;5.70;;;;;;;18.15;100.00;101254.75;5033646;28;20091;-74
2022/06/23 00:19:19;;;;;;;14.32;6.40;;;;;;;18.15;100.00;101241.44;5027924;28;20109;-74
2022/06/23 00:21:52;;;;;;;11.93;5.72;;;;;;;18.08;100.00;101246.81;5033281;28;20479;-74
2022/06/23 00:24:23;;;;;;;10.98;6.55;;;;;;;18.08;100.00;101237.06;5032340;28;20507;-73
2022/06/23 00:26:50;;;;;;;12.68;6.18;;;;;;;17.98;100.00;101238.00;5030010;28;20172;-73
2022/06/23 00:29:20;;;;;;;11.90;6.45;;;;;;;17.96;100.00;101238.03;5031950;28;20037;-73
2022/06/23 00:31:58;;;;;;;14.05;6.50;;;;;;;18.07;100.00;101229.97;5032211;28;20029;-74
2022/06/23 00:34:30;;;;;;;10.32;6.07;;;;;;;18.06;100.00;101237.97;5030036;28;20465;-73
2022/06/23 00:37:01;;;;;;;11.27;6.05;;;;;;;18.05;100.00;101229.06;5034170;28;20100;-73
2022/06/23 00:39:37;;;;;;;10.43;5.60;;;;;;;18.04;100.00;101229.97;5032009;28;20032;-74
2022/06/23 00:42:16;;;;;;;11.75;5.55;;;;;;;18.02;100.00;101226.44;5033957;28;20025;-72
2022/06/23 00:45:02;;;;;;;6.93;5.30;;;;;;;17.87;100.00;101216.75;5030531;28;20491;-72
2022/06/23 00:47:37;;;;;;;9.90;6.13;;;;;;;17.70;100.00;101224.84;5033378;28;20040;-73
2022/06/23 00:50:17;;;;;;;10.93;5.88;;;;;;;17.80;100.00;101233.69;5032958;28;20029;-72
2022/06/23 00:52:50;;;;;;;12.80;6.32;;;;;;;17.79;100.00;101227.47;5032548;28;20473;-75
2022/06/23 00:55:29;;;;;;;8.90;6.07;;;;;;;17.79;100.00;101222.13;5032251;28;20377;-74
2022/06/23 00:58:01;;;;;;;10.20;6.10;;;;;;;17.72;100.00;101228.41;5032397;28;20025;-73
2022/06/23 01:00:35;;;;;;;11.40;6.32;;;;;;;17.73;100.00;101222.19;5034281;28;20037;-73
2022/06/23 01:03:11;;;;;;;12.05;5.55;;;;;;;17.60;100.00;101223.16;5032584;28;20550;-73
2022/06/23 01:06:24;;;;;;;8.85;6.03;;;;;;;17.54;100.00;101224.09;5031320;28;20033;-73
2022/06/23 01:09:04;;;;;;;9.88;6.07;;;;;;;17.73;100.00;101219.53;4991259;28;20038;-72
2022/06/23 01:11:38;;;;;;;12.43;6.35;;;;;;;17.67;100.00;101215.13;5032741;28;20041;-72
2022/06/23 01:14:21;;;;;;;11.73;6.70;;;;;;;17.64;100.00;101215.13;5032924;28;20030;-73
2022/06/23 01:16:52;;;;;;;11.30;6.57;;;;;;;17.56;100.00;101216.09;5033184;28;20029;-73
2022/06/23 01:19:45;;;;;;;14.43;5.95;;;;;;;17.62;100.00;101216.94;5034590;28;20428;-74
2022/06/23 01:22:26;;;;;;;13.13;7.10;;;;;;;17.48;100.00;101217.00;5031525;28;20041;-72
2022/06/23 01:25:10;;;;;;;11.35;6.20;;;;;;;17.52;100.00;101218.75;5025013;28;20485;-72
2022/06/23 01:27:47;;;;;;;11.25;6.72;;;;;;;17.51;100.00;101213.44;5027533;28;20040;-72
2022/06/23 01:30:13;;;;;;;11.13;6.45;;;;;;;17.47;100.00;101225.91;5031113;28;20100;-74
2022/06/23 01:32:46;;;;;;;10.77;6.28;;;;;;;17.45;100.00;101213.50;5033006;28;20115;-73
2022/06/23 01:35:29;;;;;;;10.65;6.40;;;;;;;17.33;100.00;101230.41;5025833;28;20092;-73
2022/06/23 01:38:01;;;;;;;12.90;6.77;;;;;;;17.24;100.00;101219.81;5032538;28;20040;-72
2022/06/23 01:40:39;;;;;;;11.15;6.80;;;;;;;17.15;100.00;101221.63;5033332;28;20288;-73
2022/06/23 01:43:11;;;;;;;15.80;6.93;;;;;;;17.19;100.00;101223.38;5033036;28;20032;-73
2022/06/23 01:45:48;;;;;;;10.77;6.30;;;;;;;17.03;100.00;101227.00;5028416;28;20370;-73
2022/06/23 01:48:51;;;;;;;13.23;5.90;;;;;;;16.99;100.00;101230.56;5028122;28;20032;-74
2022/06/23 01:51:27;;;;;;;11.98;7.05;;;;;;;16.94;100.00;101221.72;5031212;28;20449;-73
2022/06/23 01:54:14;;;;;;;15.82;6.85;;;;;;;17.08;100.00;101222.56;5031870;28;20038;-73
2022/06/23 01:56:49;;;;;;;14.43;7.32;;;;;;;16.99;100.00;101219.94;5032358;28;20041;-73
2022/06/23 01:59:47;;;;;;;10.82;6.78;;;;;;;17.05;100.00;101219.91;5028667;28;20074;-74
2022/06/23 02:02:40;;;;;;;15.02;7.00;;;;;;;17.05;100.00;101214.59;5024565;28;20048;-73
2022/06/23 02:05:24;;;;;;;15.32;7.10;;;;;;;17.08;100.00;101214.59;5025565;28;20028;-74
2022/06/23 02:08:08;;;;;;;;;;;;;;;17.09;100.00;101216.34;5031387;28;20088;-73
2022/06/23 02:10:44;;;;;;;11.38;6.50;;;;;;;17.10;100.00;101211.91;5032861;28;20284;-74
2022/06/23 02:13:32;;;;;;;10.43;6.10;;;;;;;17.05;100.00;101211.03;5029869;28;20398;-73
2022/06/23 02:16:25;;;;;;;9.35;6.65;;;;;;;16.91;100.00;101211.09;5028176;28;20108;-73
2022/06/23 02:19:08;;;;;;;16.17;7.43;;;;;;;16.97;100.00;101206.66;5032038;28;20112;-74
2022/06/23 02:21:46;;;;;;;13.63;7.07;;;;;;;17.02;100.00;101203.97;5030736;28;20292;-73
2022/06/23 02:24:34;;;;;;;11.70;7.13;;;;;;;16.98;100.00;101202.22;5032463;28;20051;-73
2022/06/23 02:27:23;;;;;;;18.02;7.05;;;;;;;17.05;100.00;101209.28;5031186;28;20033;-73
2022/06/23 02:30:28;;;;;;;13.68;7.15;;;;;;;17.06;100.00;101200.41;5025912;28;20464;-73
2022/06/23 02:32:53;;;;;;;11.48;6.88;;;;;;;16.88;100.00;101203.13;5026897;28;20041;-73
2022/06/23 02:35:26;;;;;;;17.65;7.70;;;;;;;16.80;100.00;101204.00;5030598;28;20033;-73
2022/06/23 02:38:03;;;;;;;15.85;7.45;;;;;;;16.76;100.00;101199.59;5025810;28;20025;-74
2022/06/23 02:40:35;;;;;;;11.68;7.28;;;;;;;16.90;100.00;101212.00;5032368;28;20077;-74
2022/06/23 02:43:15;;;;;;;12.15;6.70;;;;;;;16.96;100.00;101206.66;5031461;28;20026;-73
2022/06/23 02:45:55;;;;;;;13.65;6.90;;;;;;;17.03;100.00;101206.59;5030760;28;20030;-73
2022/06/23 02:48:32;;;;;;;13.25;6.97;;;;;;;17.02;100.00;101206.63;5031127;28;20485;-73
2022/06/23 02:51:35;;;;;;;9.85;6.68;;;;;;;16.86;100.00;101198.69;5026612;28;20021;-73
2022/06/23 02:54:18;;;;;;;11.73;6.95;;;;;;;16.83;100.00;101188.06;5020342;28;20417;-73
2022/06/23 02:57:08;;;;;;;14.57;7.72;;;;;;;16.80;100.00;101188.06;5030890;28;20112;-74
2022/06/23 02:59:53;;;;;;;13.13;7.97;;;;;;;16.63;100.00;101189.88;5032499;28;20087;-74
2022/06/23 03:02:42;;;;;;;15.48;7.38;;;;;;;16.54;100.00;101195.25;5031847;28;20132;-73
2022/06/23 03:05:37;;;;;;;13.13;7.38;;;;;;;16.63;100.00;101189.88;5029787;28;20044;-73
2022/06/23 03:08:25;;;;;;;12.77;7.78;;;;;;;16.52;100.00;101180.19;5024536;28;20473;-73
2022/06/23 03:11:09;;;;;;;15.27;7.95;;;;;;;16.48;100.00;101174.88;5032622;28;20033;-74
2022/06/23 03:13:46;;;;;;;12.45;7.80;;;;;;;16.41;100.00;101174.00;5017583;28;20026;-73
2022/06/23 03:16:24;;;;;;;13.13;8.73;;;;;;;16.25;100.00;101177.59;5032685;28;20032;-73
2022/06/23 03:19:08;;;;;;;13.88;7.90;;;;;;;16.39;100.00;101175.78;5035456;28;20025;-73
2022/06/23 03:21:48;;;;;;;10.77;7.55;;;;;;;16.42;100.00;101175.78;5035550;28;20064;-73
2022/06/23 03:24:31;;;;;;;13.95;7.57;;;;;;;16.35;100.00;101171.38;5032583;28;20347;-74
2022/06/23 03:27:12;;;;;;;12.02;7.10;;;;;;;16.29;100.00;101179.34;5033488;28;20535;-73
2022/06/23 03:29:46;;;;;;;11.43;7.63;;;;;;;16.38;100.00;101171.38;5036069;28;20075;-73
2022/06/23 03:32:31;;;;;;;15.88;8.63;;;;;;;16.43;100.00;101166.94;5033908;28;20061;-74
2022/06/23 03:35:05;;;;;;;13.75;7.85;;;;;;;16.35;100.00;101168.72;5015076;28;20354;-73
2022/06/23 03:37:42;;;;;;;;;;;;;;;16.29;100.00;101171.38;5033531;28;20060;-72
2022/06/23 03:43:18;;;;;;;17.02;7.78;;;;;;;16.42;100.00;101164.28;5028851;28;20037;-73
2022/06/23 03:46:04;;;;;;;12.35;7.70;;;;;;;16.43;100.00;101156.31;5031467;28;20036;-73
2022/06/23 03:48:37;;;;;;;9.98;7.50;;;;;;;16.39;100.00;101154.56;5029809;28;20101;-73
2022/06/23 03:51:14;;;;;;;13.13;8.10;;;;;;;16.31;100.00;101145.72;5030792;28;20106;-73
2022/06/23 03:54:00;;;;;;;14.73;7.93;;;;;;;16.30;100.00;101149.25;5035603;28;20461;-73
2022/06/23 03:56:31;;;;;;;15.57;8.18;;;;;;;16.23;100.00;101156.34;5029716;28;20381;-73
2022/06/23 03:59:05;;;;;;;14.52;7.80;;;;;;;16.28;100.00;101157.22;5032144;28;20448;-72
2022/06/23 04:01:41;;;;;;;10.82;7.93;;;;;;;16.29;100.00;101155.44;5033851;28;20070;-72
2022/06/23 04:04:17;;;;;;;10.88;8.15;;;;;;;16.39;100.00;101154.56;5028299;28;20485;-72
2022/06/23 04:06:47;;;;;;;11.57;8.13;;;;;;;16.38;100.00;101152.78;5033764;28;20038;-73
2022/06/23 04:09:25;;;;;;;15.55;7.97;;;;;;;16.43;100.00;101139.50;5034446;28;20025;-74
2022/06/23 04:12:08;;;;;;;21.02;8.60;;;;;;;16.46;100.00;101135.03;5032138;28;20060;-73
2022/06/23 04:14:33;;;;;;;15.43;8.38;;;;;;;16.48;100.00;101127.06;5034322;28;20026;-72
2022/06/23 04:17:13;;;;;;;16.67;9.02;;;;;;;16.38;100.00;101138.63;5033414;28;20030;-73
2022/06/23 04:19:44;;;;;;;11.57;8.25;;;;;;;16.24;100.00;101138.66;5034967;28;20120;-72
2022/06/23 04:22:26;;;;;;;20.58;8.95;;;;;;;16.33;100.00;101144.84;5033768;28;20033;-74
2022/06/23 04:24:55;;;;;;;16.60;8.75;;;;;;;16.35;100.00;101128.88;5034097;28;20060;-74
2022/06/23 04:27:44;;;;;;;17.17;8.68;;;;;;;16.43;100.00;101132.41;5031844;28;20382;-74
2022/06/23 04:30:23;;;;;;;16.75;8.88;;;;;;;16.47;100.00;101134.16;5025108;28;20553;-74
2022/06/23 04:32:50;;;;;;;14.38;8.50;;;;;;;16.54;100.00;101126.19;5031744;28;20461;-72
2022/06/23 04:35:20;;;;;;;11.65;8.88;;;;;;;16.52;100.00;101129.72;5032267;28;20025;-73
2022/06/23 04:37:51;;;;;;;14.77;7.95;;;;;;;16.54;100.00;101139.47;5034065;28;20040;-73
2022/06/23 04:40:48;;;;;;;13.95;8.55;;;;;;;16.65;100.00;101127.00;5034101;28;20072;-74
2022/06/23 04:43:35;;;;;;;13.75;8.82;;;;;;;16.55;100.00;101133.25;5030489;28;20083;-74
2022/06/23 04:46:14;;;;;;;11.48;8.23;;;;;;;16.64;100.00;101127.91;5034153;28;20029;-74
2022/06/23 04:48:39;;;;;;;15.75;8.82;;;;;;;16.74;100.00;101134.94;5034295;28;20029;-74
2022/06/23 04:51:29;;;;;;;10.80;8.07;;;;;;;16.75;100.00;101134.03;5032336;28;20026;-74
2022/06/23 04:53:55;;;;;;;11.60;8.45;;;;;;;16.86;100.00;101140.22;5023332;28;20477;-74
2022/06/23 04:56:29;;;;;;;12.07;7.90;;;;;;;16.87;100.00;101141.09;5031995;28;20056;-74
2022/06/23 04:59:06;;;;;;;16.98;7.82;;;;;;;16.88;100.00;101136.66;5033146;28;20481;-74
2022/06/23 05:01:38;;;;;;;14.32;7.95;;;;;;;16.83;100.00;101123.38;5030092;28;20025;-74
2022/06/23 05:04:11;;;;;;;17.00;8.35;;;;;;;16.96;100.00;101124.25;5033648;28;20037;-74
2022/06/23 05:06:45;;;;;;;14.18;7.97;;;;;;;16.99;100.00;101117.13;5033892;28;20025;-74
2022/06/23 05:09:19;;;;;;;12.77;8.35;;;;;;;16.98;100.00;101122.44;5044336;28;20104;-73
2022/06/23 05:11:47;;;;;;;;;;;;;;;16.93;100.00;101140.19;5032942;28;20031;-74
2022/06/23 05:14:31;;;;;;;14.65;8.68;;;;;;;17.01;100.00;101154.31;5032856;28;19939;-74
2022/06/23 05:17:13;;;;;;;17.58;8.82;;;;;;;17.11;100.00;101150.75;5031207;28;20063;-75
2022/06/23 05:19:41;;;;;;;14.57;9.07;;;;;;;17.07;100.00;101133.03;5028388;28;20504;-74
2022/06/23 05:22:17;;;;;;;14.05;8.15;;;;;;;17.12;100.00;101146.28;5023201;28;20025;-75
2022/06/23 05:24:45;;;;;;;13.20;9.05;;;;;;;17.22;100.00;101144.50;5031140;28;20597;-75
2022/06/23 05:27:23;;;;;;;13.05;7.75;;;;;;;17.33;100.00;101145.28;5028815;28;20034;-74
2022/06/23 05:30:17;;;;;;;12.13;7.97;;;;;;;17.26;100.00;101143.56;5027280;28;20037;-73
2022/06/23 05:32:48;;;;;;;20.23;8.07;;;;;;;17.31;100.00;101147.09;5026364;28;20040;-75
2022/06/23 05:35:37;;;;;;;13.77;8.80;;;;;;;17.40;100.00;101141.69;5032784;28;20040;-75
2022/06/23 05:38:12;;;;;;;13.55;7.85;;;;;;;17.50;100.00;101130.09;5031886;28;20048;-74
2022/06/23 05:40:50;;;;;;;11.13;7.60;;;;;;;17.53;100.00;101130.06;5020386;28;20362;-74
2022/06/23 05:43:17;;;;;;;12.23;8.18;;;;;;;17.62;100.00;101146.84;5032065;28;20108;-73
2022/06/23 05:45:47;;;;;;;14.32;7.30;;;;;;;17.70;100.00;101137.94;5030772;28;20033;-70
2022/06/23 05:48:27;;;;;;;12.98;7.40;;;;;;;17.78;100.00;101143.16;5032815;28;20079;-74
2022/06/23 05:51:01;;;;;;;14.75;7.22;;;;;;;17.86;100.00;101129.78;5029021;28;20040;-75
2022/06/23 05:53:57;;;;;;;19.25;7.63;;;;;;;17.91;100.00;101135.09;5029502;28;20452;-74
2022/06/23 05:57:01;;;;;;;10.50;7.10;;;;;;;17.96;100.00;101136.84;5026254;28;20037;-75
2022/06/23 05:59:45;;;;;;;11.77;7.72;;;;;;;18.00;100.00;101141.25;5020459;28;20033;-75
2022/06/23 06:02:21;;;;;;;14.77;8.82;;;;;;;18.08;100.00;101143.84;5027589;28;20075;-75
2022/06/23 06:04:52;;;;;;;12.77;7.60;;;;;;;18.15;100.00;101141.97;5023499;28;20025;-75
2022/06/23 06:07:22;;;;;;;13.70;7.63;;;;;;;18.20;100.00;101145.47;5024508;28;20029;-74
2022/06/23 06:09:49;;;;;;;14.00;7.68;;;;;;;18.26;100.00;101141.88;5031792;28;20029;-77
2022/06/23 06:12:19;;;;;;;10.82;7.82;;;;;;;18.33;100.00;101132.94;5028714;28;20057;-74
2022/06/23 06:14:51;;;;;;;15.23;7.70;;;;;;;18.39;100.00;101124.84;5031796;28;20365;-73
2022/06/23 06:17:23;;;;;;;16.42;6.85;;;;;;;18.51;100.00;101129.16;5013886;28;20029;-72
2022/06/23 06:19:50;;;;;;;10.07;6.88;;;;;;;18.52;100.00;101126.47;5028786;28;20032;-72
2022/06/23 06:22:24;;;;;;;10.63;7.70;;;;;;;18.52;100.00;101121.16;5018540;28;20057;-72
2022/06/23 06:24:53;;;;;;;13.60;8.57;;;;;;;18.51;100.00;101124.69;5032354;28;20369;-72
2022/06/23 06:27:18;;;;;;;14.13;7.50;;;;;;;18.54;100.00;101118.47;5040098;28;20052;-72
2022/06/23 06:29:45;;;;;;;16.40;8.38;;;;;;;18.58;100.00;101109.53;5032044;28;20033;-72
2022/06/23 06:32:38;;;;;;;17.30;7.72;;;;;;;18.69;100.00;101117.38;5032530;28;20491;-73
2022/06/23 06:35:26;;;;;;;9.88;6.60;;;;;;;18.80;100.00;101115.47;5030181;28;20021;-73
2022/06/23 06:38:18;;;;;;;14.20;8.15;;;;;;;18.89;100.00;101113.63;5028897;28;20025;-74
2022/06/23 06:40:48;;;;;;;15.40;8.60;;;;;;;18.91;100.00;101118.03;5029092;28;20481;-74
2022/06/23 06:43:18;;;;;;;12.02;7.63;;;;;;;18.97;100.00;101107.28;5028811;28;20041;-74
2022/06/23 06:45:47;;;;;;;11.90;7.53;;;;;;;19.05;100.00;101117.84;5028901;28;20037;-73
2022/06/23 06:48:29;;;;;;;12.02;7.53;;;;;;;19.17;100.00;101115.00;5032616;28;20516;-72
2022/06/23 06:51:00;;;;;;;19.13;7.57;;;;;;;19.30;100.00;101099.69;5031627;28;20432;-72
2022/06/23 06:53:28;;;;;;;13.63;8.18;;;;;;;19.36;100.00;101088.91;5030480;28;20132;-73
2022/06/23 06:56:14;;;;;;;10.95;7.55;;;;;;;19.48;100.00;101098.50;5032438;28;20029;-73
2022/06/23 06:59:09;;;;;;;10.77;7.53;;;;;;;19.54;100.00;101103.72;5024726;28;20040;-73
2022/06/23 07:01:38;;;;;;;12.75;7.80;;;;;;;19.55;100.00;101097.50;5028500;28;20041;-73
2022/06/23 07:04:03;;;;;;;15.48;6.82;;;;;;;19.63;100.00;101102.72;5032207;28;20499;-73
2022/06/23 07:06:46;;;;;;;14.32;7.57;;;;;;;19.74;100.00;101097.19;5032672;28;20034;-73
2022/06/23 07:09:36;;;;;;;12.68;7.30;;;;;;;19.90;100.00;101094.25;5031213;28;20481;-72
2022/06/23 07:12:16;;;;;;;10.93;6.20;;;;;;;20.02;100.00;101107.38;5031511;28;20116;-73
2022/06/23 07:14:58;;;;;;;12.02;7.18;;;;;;;20.10;100.00;101108.13;5030080;28;20037;-73
2022/06/23 07:17:37;;;;;;;9.93;5.97;;;;;;;20.21;100.00;101114.16;5032080;28;20030;-73
2022/06/23 07:20:06;;;;;;;10.55;6.95;;;;;;;20.26;100.00;101113.19;5032567;28;20051;-72
2022/06/23 07:22:47;;;;;;;12.07;6.32;;;;;;;20.39;100.00;101112.03;5031577;28;20036;-72
2022/06/23 07:25:32;;;;;;;11.43;7.13;;;;;;;20.49;100.00;101110.94;5029808;28;20029;-72
2022/06/23 07:28:13;;;;;;;10.90;6.45;;;;;;;20.60;100.00;101112.50;5031176;28;20029;-71
2022/06/23 07:30:55;;;;;;;10.05;6.65;;;;;;;20.67;100.00;101120.38;5031966;28;20052;-72
2022/06/23 07:33:30;;;;;;;14.05;7.57;;;;;;;20.76;100.00;101111.31;5031326;28;20029;-73
2022/06/23 07:36:19;;;;;;;16.85;7.72;;;;;;;20.89;100.00;101107.44;5030362;28;20022;-73
2022/06/23 07:38:50;;;;;;;14.20;7.57;;;;;;;20.88;100.00;101104.81;5022851;28;20033;-73
2022/06/23 07:41:30;;;;;;;9.60;5.95;;;;;;;20.97;100.00;101111.72;5031232;28;20025;-73
2022/06/23 07:44:16;;;;;;;16.25;7.57;;;;;;;21.08;100.00;101106.16;5031603;28;20400;-73
2022/06/23 07:46:42;;;;;;;11.50;7.68;;;;;;;21.17;100.00;101113.97;5023781;28;20021;-73
2022/06/23 07:49:08;;;;;;;13.75;6.68;;;;;;;21.27;100.00;101114.63;5030479;28;20025;-72
2022/06/23 07:51:35;;;;;;;13.73;7.60;;;;;;;21.29;100.00;101108.31;5030616;28;20367;-72
2022/06/23 07:54:01;;;;;;;14.35;7.95;;;;;;;21.40;100.00;101110.72;5030703;28;20068;-72
2022/06/23 07:56:30;;;;;;;11.07;7.28;;;;;;;21.49;100.00;101115.00;5032619;28;20460;-73
2022/06/23 07:59:04;;;;;;;14.05;6.90;;;;;;;21.53;100.00;101106.88;5034128;28;20445;-73
2022/06/23 08:01:36;;;;;;;11.43;6.57;;;;;;;21.61;100.00;101105.78;5032707;28;20079;-73
2022/06/23 08:04:23;;;;;;;10.68;7.55;;;;;;;21.74;100.00;101109.91;5028231;28;20091;-73
2022/06/23 08:06:49;;;;;;;9.07;6.47;;;;;;;21.90;100.00;101103.25;5033161;28;20076;-73
2022/06/23 08:09:25;;;;;;;12.05;6.85;;;;;;;21.98;100.00;101097.69;5034094;28;20100;-74
2022/06/23 08:16:49;;;;;;;12.52;7.63;;;;;;;22.29;100.00;101098.63;5034590;28;20048;-73
2022/06/23 08:17:39;;;;;;;10.57;6.75;;;;;;;22.41;100.00;101098.34;5032748;28;20033;-73
2022/06/23 08:20:08;;;;;;;9.30;7.03;;;;;;;22.47;100.00;101095.47;5038987;28;20030;-73
2022/06/23 08:22:38;;;;;;;10.02;6.78;;;;;;;22.54;98.63;101097.03;5034860;28;20025;-72
2022/06/23 08:25:06;;;;;;;12.38;7.03;;;;;;;22.63;100.00;101100.41;5035391;28;20033;-72
2022/06/23 08:27:33;;;;;;;15.45;6.95;;;;;;;22.73;100.00;101099.19;5033080;28;20061;-72
2022/06/23 08:30:08;;;;;;;11.98;7.07;;;;;;;22.86;99.73;101087.16;5034286;28;20488;-72
2022/06/23 08:32:38;;;;;;;13.82;7.35;;;;;;;22.98;99.45;101087.69;5032731;28;20381;-72
2022/06/23 08:35:14;;;;;;;20.38;7.03;;;;;;;23.05;97.80;101081.22;5034807;28;20030;-72
2022/06/23 08:37:46;;;;;;;14.20;6.18;;;;;;;23.23;99.24;101086.00;5034514;28;20068;-72
2022/06/23 08:40:14;;;;;;;20.35;7.47;;;;;;;23.32;98.60;101082.16;5034358;28;20026;-72
2022/06/23 08:42:52;;;;;;;14.30;7.50;;;;;;;23.44;96.62;101088.94;5033900;28;20025;-72
2022/06/23 08:45:36;;;;;;;13.27;6.88;;;;;;;23.48;100.00;101077.16;5023362;28;20033;-73
2022/06/23 08:48:05;;;;;;;;;;;;;;;23.44;98.59;101088.94;5024989;28;20048;-73
2022/06/23 08:50:35;;;;;;;15.98;7.22;;;;;;;23.55;97.91;101081.38;5033934;28;20323;-73
2022/06/23 08:53:17;;;;;;;13.07;7.25;;;;;;;23.66;97.42;101080.16;5033203;28;20049;-72
2022/06/23 08:56:00;;;;;;;13.05;7.18;;;;;;;23.76;100.00;101083.41;5033372;28;20457;-72
2022/06/23 08:58:25;;;;;;;14.05;7.35;;;;;;;23.95;98.61;101078.28;5032447;28;20067;-72
2022/06/23 09:01:02;;;;;;;12.35;7.95;;;;;;;24.07;97.71;101067.94;5030768;28;20034;-73
2022/06/23 09:03:51;;;;;;;17.20;7.97;;;;;;;24.29;98.69;101072.53;5031885;28;20029;-73
2022/06/23 09:06:36;;;;;;;17.25;7.07;;;;;;;24.44;98.79;101067.53;5033339;28;20425;-73
2022/06/23 09:09:28;;;;;;;16.77;7.47;;;;;;;24.41;97.94;101063.13;5032592;28;20056;-73
2022/06/23 09:11:59;;;;;;;13.20;7.10;;;;;;;24.37;96.90;101065.06;5033865;28;20105;-73
2022/06/23 09:14:43;;;;;;;11.82;6.85;;;;;;;24.56;95.68;101064.38;5033828;28;20029;-74
2022/06/23 09:17:19;;;;;;;14.93;8.32;;;;;;;24.60;94.32;101066.00;5034307;28;20052;-73
2022/06/23 09:19:53;;;;;;;10.13;6.93;;;;;;;24.61;94.39;101064.19;5033511;28;20038;-73
2022/06/23 09:22:36;;;;;;;11.52;7.28;;;;;;;24.72;94.39;101052.09;5032922;28;20025;-73
2022/06/23 09:25:13;;;;;;;12.15;6.65;;;;;;;24.88;94.03;101065.84;5033392;28;20047;-73
2022/06/23 09:27:54;;;;;;;15.02;7.95;;;;;;;25.05;94.50;101059.75;5027884;28;20034;-72
2022/06/23 09:30:38;;;;;;;17.55;7.70;;;;;;;25.17;94.75;101065.59;5032469;28;20033;-73
2022/06/23 09:33:12;;;;;;;12.00;8.18;;;;;;;25.25;95.03;101064.31;5031727;28;20026;-74
2022/06/23 09:35:45;;;;;;;14.82;8.40;;;;;;;25.31;93.22;101059.63;5032522;28;20056;-73
2022/06/23 09:38:47;;;;;;;13.00;8.65;;;;;;;25.41;94.33;101055.66;5030059;28;20354;-72
2022/06/23 09:41:38;;;;;;;12.68;8.55;;;;;;;25.45;93.94;101065.34;5033055;28;20385;-72
2022/06/23 09:44:32;;;;;;;17.00;8.38;;;;;;;25.62;95.46;101056.53;5032340;28;20029;-72
2022/06/23 09:47:21;;;;;;;12.77;7.88;;;;;;;25.72;94.09;101047.13;5033790;28;20048;-72
2022/06/23 09:50:01;;;;;;;18.48;9.35;;;;;;;25.87;93.21;101045.56;5031665;28;20021;-71
2022/06/23 09:53:05;;;;;;;16.45;8.40;;;;;;;26.06;93.64;101053.75;5033344;28;20045;-72
2022/06/23 09:55:55;;;;;;;13.48;7.22;;;;;;;26.23;94.62;101050.25;5032199;28;20029;-73
2022/06/23 09:58:50;;;;;;;14.48;8.50;;;;;;;26.28;94.04;101044.66;5032255;28;20060;-73
2022/06/23 10:01:28;;;;;;;13.73;6.32;;;;;;;26.27;93.61;101045.59;5018386;28;20094;-73
2022/06/23 10:04:06;;;;;;;15.93;7.82;;;;;;;26.22;93.57;101048.53;5033439;28;20461;-72
2022/06/23 10:06:59;;;;;;;17.80;7.70;;;;;;;26.33;94.39;101049.84;5031200;28;20026;-72
2022/06/23 10:09:27;;;;;;;24.33;6.72;;;;;;;26.45;95.35;101041.16;5032193;28;20065;-72
2022/06/23 10:12:30;;;;;;;16.02;6.90;;;;;;;26.63;95.64;101046.66;5037374;28;20392;-73
2022/06/23 10:15:10;;;;;;;11.38;7.03;;;;;;;26.67;94.30;101041.03;5032461;28;20422;-73
2022/06/23 10:18:15;;;;;;;17.92;7.22;;;;;;;26.78;94.28;101047.78;5032618;28;20128;-72
2022/06/23 10:21:20;;;;;;;12.07;6.85;;;;;;;26.99;94.92;101048.56;5014358;28;20489;-73
2022/06/23 10:24:14;;;;;;;16.55;8.00;;;;;;;26.98;94.08;101047.69;5020453;28;20355;-72
2022/06/23 10:26:39;;;;;;;11.70;6.53;;;;;;;27.02;94.58;101046.59;5030501;28;20040;-73
2022/06/23 10:29:22;;;;;;;16.42;8.55;;;;;;;27.09;94.02;101044.47;5031249;28;20399;-73
2022/06/23 10:32:16;;;;;;;16.40;8.18;;;;;;;27.16;92.74;101040.50;5030666;28;20500;-70
2022/06/23 10:34:54;;;;;;;14.73;9.05;;;;;;;27.25;92.45;101037.34;5030483;28;20420;-72
2022/06/23 10:37:48;;;;;;;18.13;8.20;;;;;;;27.24;93.01;101032.03;5031680;28;20563;-74
2022/06/23 10:40:36;;;;;;;12.88;7.82;;;;;;;27.45;95.84;101023.78;5019998;28;20366;-73
2022/06/23 10:43:29;;;;;;;16.35;7.15;;;;;;;27.72;92.76;101025.03;5029485;28;20018;-73
2022/06/23 10:46:11;;;;;;;14.98;6.57;;;;;;;27.97;94.60;101025.56;5033051;28;20065;-72
2022/06/23 10:49:04;;;;;;;10.52;5.20;;;;;;;28.10;91.24;101014.03;5032905;28;20021;-72
2022/06/23 10:52:04;;;;;;;15.88;6.75;;;;;;;27.96;90.37;101016.59;5032901;28;20071;-74
2022/06/23 10:54:56;;;;;;;14.77;6.72;;;;;;;28.13;89.46;101002.16;5020607;28;20050;-74
2022/06/23 10:57:35;;;;;;;16.10;6.40;;;;;;;28.35;90.08;100996.47;5025198;28;20421;-75
2022/06/23 11:00:07;;;;;;;13.75;6.53;;;;;;;28.36;88.51;100997.31;5027092;28;20037;-75
2022/06/23 11:03:09;;;;;;;14.63;5.55;;;;;;;28.48;87.13;101001.19;5032169;28;20021;-75
2022/06/23 11:05:52;;;;;;;14.32;7.63;;;;;;;28.54;88.75;100993.59;5019580;28;20029;-74
2022/06/23 11:08:47;;;;;;;18.45;6.25;;;;;;;28.66;86.78;100997.44;5032253;28;20389;-74
2022/06/23 11:11:37;;;;;;;13.75;5.53;;;;;;;28.82;80.62;100997.44;5007776;28;20132;-74
2022/06/23 11:14:05;;;;;;;13.05;5.95;;;;;;;29.01;79.44;100999.09;5025429;28;20027;-74
2022/06/23 11:16:52;;;;;;;14.27;6.00;;;;;;;29.20;77.73;100996.16;5032262;28;20412;-74
2022/06/23 11:19:41;;;;;;;18.42;6.32;;;;;;;29.35;74.84;101005.25;5025370;28;20057;-75
2022/06/23 11:22:06;;;;;;;18.27;6.75;;;;;;;29.33;74.44;101001.75;5032118;28;20404;-75
2022/06/23 11:24:34;;;;;;;20.27;5.97;;;;;;;29.23;75.35;100999.56;5025818;28;20132;-74
2022/06/23 11:27:37;;;;;;;13.70;6.35;;;;;;;29.26;75.44;101004.84;5032163;28;20302;-74
2022/06/23 11:30:25;;;;;;;17.50;6.60;;;;;;;29.47;72.73;101004.50;5025154;28;20120;-75
2022/06/23 11:33:11;;;;;;;20.02;7.78;;;;;;;29.54;71.00;100999.59;5021213;28;20056;-74
2022/06/23 11:35:58;;;;;;;18.05;6.47;;;;;;;29.49;72.51;100994.44;5036561;28;20096;-74
2022/06/23 11:39:01;;;;;;;14.77;5.00;;;;;;;29.75;72.00;100986.56;5035168;28;20030;-75
2022/06/23 11:41:47;;;;;;;14.25;5.82;;;;;;;30.14;67.71;100998.59;5024332;28;20466;-75
2022/06/23 11:44:41;;;;;;;15.82;5.60;;;;;;;30.24;65.94;100991.63;5033989;28;20041;-74
2022/06/23 11:47:22;;;;;;;12.40;5.60;;;;;;;30.35;64.69;100981.91;5036020;28;20060;-74
2022/06/23 11:50:00;;;;;;;18.30;6.22;;;;;;;30.54;64.52;100990.63;5029729;28;20068;-73
2022/06/23 11:52:28;;;;;;;14.88;5.22;;;;;;;30.78;64.65;100979.13;5035402;28;20053;-73
2022/06/23 11:55:06;;;;;;;16.65;5.82;;;;;;;30.93;62.85;100983.53;5034983;28;20029;-74
2022/06/23 11:57:57;;;;;;;14.25;6.07;;;;;;;31.00;61.69;100988.53;5028302;28;20030;-74
2022/06/23 12:00:45;;;;;;;11.00;5.73;;;;;;;30.88;61.67;100980.25;5036521;28;20359;-72
2022/06/23 12:03:20;;;;;;;18.13;6.28;;;;;;;30.63;62.92;100966.56;5034692;28;20263;-74
2022/06/23 12:06:26;;;;;;;15.32;6.75;;;;;;;30.68;62.89;100967.97;5035101;28;20116;-73
2022/06/23 12:09:00;;;;;;;13.02;5.32;;;;;;;30.86;60.67;100970.44;5034962;28;20366;-74
2022/06/23 12:11:28;;;;;;;12.10;5.00;;;;;;;30.97;60.75;100969.72;5035716;28;20474;-73
2022/06/23 12:13:57;;;;;;;15.43;6.05;;;;;;;31.11;62.10;100970.56;5035532;28;20057;-74